createdAt,value
2022-08-22T00:00:13.452Z,100868.06
2022-08-22T00:02:45.270Z,100820.19
2022-08-22T00:02:48.773Z,100843.28
2022-08-22T00:03:11.561Z,100818.78
2022-08-22T00:03:15.454Z,100911.75
2022-08-22T00:03:15.676Z,100885.66
2022-08-22T00:05:48.655Z,100898.69
2022-08-22T00:08:52.711Z,100873.75
2022-08-22T00:11:30.300Z,100906.66
2022-08-22T00:14:24.739Z,100905.75
2022-08-22T00:17:03.164Z,100909.59
2022-08-22T00:19:47.937Z,100902.91
2022-08-22T00:22:25.826Z,100848.56
2022-08-22T00:25:24.761Z,100876.97
2022-08-22T00:28:31.322Z,100904.34
2022-08-22T00:31:16.106Z,100879.38
2022-08-22T00:33:51.866Z,100914.56
2022-08-22T00:36:28.715Z,100889.81
2022-08-22T00:39:14.166Z,100861.28
2022-08-22T00:42:02.042Z,100879.88
2022-08-22T00:44:40.851Z,100916.03
2022-08-22T00:47:16.616Z,100913.59
2022-08-22T00:50:04.200Z,100923.13
2022-08-22T00:52:39.799Z,100917.88
2022-08-22T00:55:09.409Z,100925.44
2022-08-22T00:58:15.135Z,100923.13
2022-08-22T01:00:53.195Z,100905.34
2022-08-22T01:03:48.138Z,100903.47
2022-08-22T01:06:32.692Z,100902.56
2022-08-22T01:09:02.922Z,100925.44
2022-08-22T01:12:01.041Z,100910.50
2022-08-22T01:14:34.366Z,100918.56
2022-08-22T01:17:23.296Z,100920.50
2022-08-22T01:20:20.702Z,100926.53
2022-08-22T01:23:05.891Z,100917.03
2022-08-22T01:26:13.596Z,100913.91
2022-08-22T01:29:02.310Z,100915.09
2022-08-22T01:32:04.868Z,100913.75
2022-08-22T01:34:40.602Z,100915.38
2022-08-22T01:37:43.471Z,100916.47
2022-08-22T01:40:53.792Z,100920.88
2022-08-22T01:43:59.162Z,100933.41
2022-08-22T01:46:32.548Z,100931.00
2022-08-22T01:49:14.326Z,100924.19
2022-08-22T01:51:56.597Z,100922.75
2022-08-22T01:54:42.927Z,100920.06
2022-08-22T01:57:11.882Z,100911.84
2022-08-22T01:59:42.853Z,100927.59
2022-08-22T02:02:12.589Z,100918.75
2022-08-22T02:04:45.014Z,100914.28
2022-08-22T02:07:32.255Z,100919.69
2022-08-22T02:10:05.095Z,100911.59
2022-08-22T02:12:43.242Z,100913.00
2022-08-22T02:15:43.931Z,100900.63
2022-08-22T02:18:25.115Z,100878.63
2022-08-22T02:21:05.618Z,100901.22
2022-08-22T02:23:57.015Z,100866.25
2022-08-22T02:26:23.665Z,100903.38
2022-08-22T02:28:57.659Z,100906.78
2022-08-22T02:31:36.716Z,100902.91
2022-08-22T02:34:20.498Z,100847.97
2022-08-22T02:37:03.239Z,100859.13
2022-08-22T02:39:34.997Z,100881.16
2022-08-22T02:42:01.634Z,100905.50
2022-08-22T02:44:41.077Z,100901.88
2022-08-22T02:47:13.962Z,100909.91
2022-08-22T02:49:55.361Z,100884.53
2022-08-22T02:52:33.884Z,100882.78
2022-08-22T02:55:13.994Z,100866.81
2022-08-22T02:57:48.116Z,100865.38
2022-08-22T03:00:32.500Z,100903.94
2022-08-22T03:02:59.594Z,100901.50
2022-08-22T03:05:38.614Z,100893.00
2022-08-22T03:08:13.022Z,100888.38
2022-08-22T03:10:47.594Z,100868.09
2022-08-22T03:13:24.246Z,100891.63
2022-08-22T03:16:07.094Z,100845.84
2022-08-22T03:18:59.359Z,100857.78
2022-08-22T03:21:48.109Z,100882.47
2022-08-22T03:24:32.407Z,100859.28
2022-08-22T03:27:32.410Z,100877.47
2022-08-22T03:30:34.891Z,100879.97
2022-08-22T03:33:16.397Z,100867.97
2022-08-22T03:35:46.206Z,100876.06
2022-08-22T03:38:22.620Z,100871.78
2022-08-22T03:41:10.950Z,100866.25
2022-08-22T03:44:05.179Z,100864.66
2022-08-22T03:47:03.684Z,100859.50
2022-08-22T03:49:42.639Z,100859.97
2022-08-22T03:52:24.486Z,100871.47
2022-08-22T03:55:09.654Z,100859.34
2022-08-22T03:57:45.430Z,100852.59
2022-08-22T04:00:30.885Z,100839.50
2022-08-22T04:03:00.701Z,100846.09
2022-08-22T04:05:42.577Z,100847.16
2022-08-22T04:08:28.157Z,100847.78
2022-08-22T04:10:57.734Z,100843.66
2022-08-22T04:14:08.799Z,100845.03
2022-08-22T04:16:41.320Z,100849.13
2022-08-22T04:19:31.210Z,100851.28
2022-08-22T04:22:36.433Z,100857.16
2022-08-22T04:25:23.710Z,100859.84
2022-08-22T04:28:02.458Z,100864.09
2022-08-22T04:30:42.973Z,100841.63
2022-08-22T04:33:20.167Z,100845.03
2022-08-22T04:36:00.854Z,100861.66
2022-08-22T04:38:44.772Z,100834.41
2022-08-22T04:41:20.407Z,100835.25
2022-08-22T04:43:51.902Z,100871.50
2022-08-22T04:46:39.963Z,100873.69
2022-08-22T04:49:32.810Z,100872.41
2022-08-22T04:52:29.533Z,100874.25
2022-08-22T04:55:21.530Z,100863.88
2022-08-22T04:58:02.020Z,100860.47
2022-08-22T05:00:55.299Z,100856.81
2022-08-22T05:03:26.271Z,100858.03
2022-08-22T05:05:55.965Z,100861.78
2022-08-22T05:08:27.542Z,100859.94
2022-08-22T05:10:54.990Z,100864.16
2022-08-22T05:13:39.359Z,100863.88
2022-08-22T05:16:14.155Z,100855.00
2022-08-22T05:18:49.346Z,100857.03
2022-08-22T05:21:20.750Z,100855.00
2022-08-22T05:24:11.611Z,100865.81
2022-08-22T05:26:43.159Z,100858.53
2022-08-22T05:29:12.173Z,100847.53
2022-08-22T05:31:48.862Z,100831.91
2022-08-22T05:34:24.378Z,100836.09
2022-08-22T05:37:03.002Z,100849.91
2022-08-22T05:39:31.188Z,100841.00
2022-08-22T05:42:02.152Z,100847.88
2022-08-22T05:44:38.342Z,100842.78
2022-08-22T05:47:29.690Z,100852.88
2022-08-22T05:50:15.843Z,100849.31
2022-08-22T05:52:42.538Z,100843.84
2022-08-22T05:55:22.333Z,100837.28
2022-08-22T05:58:05.890Z,100850.09
2022-08-22T06:00:37.741Z,100851.31
2022-08-22T06:03:20.663Z,100840.06
2022-08-22T06:05:53.493Z,100850.88
2022-08-22T06:08:42.067Z,100793.72
2022-08-22T06:11:18.310Z,100805.97
2022-08-22T06:13:53.748Z,100830.16
2022-08-22T06:16:31.723Z,100833.91
2022-08-22T06:18:59.901Z,100787.72
2022-08-22T06:21:35.444Z,100851.09
2022-08-22T06:24:09.695Z,100790.22
2022-08-22T06:26:40.247Z,100824.31
2022-08-22T06:29:09.009Z,100810.06
2022-08-22T06:31:47.051Z,100825.56
2022-08-22T06:34:18.145Z,100857.47
2022-08-22T06:36:50.002Z,100787.53
2022-08-22T06:39:29.594Z,100857.84
2022-08-22T06:42:19.359Z,100856.06
2022-08-22T06:44:54.336Z,100813.59
2022-08-22T06:47:37.910Z,100833.03
2022-08-22T06:50:13.705Z,100796.69
2022-08-22T06:53:19.129Z,100832.97
2022-08-22T06:56:07.864Z,100725.63
2022-08-22T06:58:42.789Z,100789.75
2022-08-22T07:01:19.463Z,100805.22
2022-08-22T07:03:58.621Z,100746.03
2022-08-22T07:06:51.883Z,100837.56
2022-08-22T07:09:41.619Z,100841.97
2022-08-22T07:12:19.589Z,100839.84
2022-08-22T07:14:51.144Z,100793.34
2022-08-22T07:17:21.871Z,100804.94
2022-08-22T07:20:00.113Z,100794.97
2022-08-22T07:22:32.122Z,100838.28
2022-08-22T07:25:16.026Z,100752.50
2022-08-22T07:28:07.390Z,100831.88
2022-08-22T07:30:59.585Z,100823.94
2022-08-22T07:33:54.262Z,100819.16
2022-08-22T07:36:46.221Z,100801.47
2022-08-22T07:39:13.396Z,100835.81
2022-08-22T07:42:17.620Z,100837.50
2022-08-22T07:44:50.365Z,100847.38
2022-08-22T07:47:26.538Z,100830.53
2022-08-22T07:50:00.359Z,100836.31
2022-08-22T07:52:34.543Z,100831.44
2022-08-22T07:55:22.994Z,100830.63
2022-08-22T07:58:04.145Z,100821.59
2022-08-22T08:00:32.520Z,100831.44
2022-08-22T08:03:05.822Z,100838.84
2022-08-22T08:05:33.575Z,100836.75
2022-08-22T08:08:02.746Z,100820.56
2022-08-22T08:10:34.761Z,100822.97
2022-08-22T08:13:09.714Z,100817.56
2022-08-22T08:15:39.399Z,100822.41
2022-08-22T08:18:13.412Z,100830.09
2022-08-22T08:20:40.221Z,100818.75
2022-08-22T08:23:10.632Z,100829.25
2022-08-22T08:25:54.500Z,100823.88
2022-08-22T08:28:34.340Z,100821.88
2022-08-22T08:31:10.381Z,100836.63
2022-08-22T08:33:42.129Z,100821.56
2022-08-22T08:36:10.097Z,100834.09
2022-08-22T08:38:55.364Z,100790.09
2022-08-22T08:41:40.818Z,100822.47
2022-08-22T08:44:19.512Z,100829.47
2022-08-22T08:47:21.779Z,100825.56
2022-08-22T08:50:21.414Z,100825.31
2022-08-22T08:52:51.092Z,100817.88
2022-08-22T08:55:31.395Z,100818.06
2022-08-22T08:58:22.219Z,100808.63
2022-08-22T09:01:02.155Z,100810.84
2022-08-22T09:03:46.050Z,100804.88
2022-08-22T09:06:34.838Z,100806.91
2022-08-22T09:09:40.785Z,100803.53
2022-08-22T09:12:37.402Z,100803.63
2022-08-22T09:15:31.227Z,100809.69
2022-08-22T09:18:32.017Z,100803.44
2022-08-22T09:21:13.766Z,100798.47
2022-08-22T09:23:59.116Z,100799.41
2022-08-22T09:26:38.718Z,100781.28
2022-08-22T09:29:12.958Z,100796.66
2022-08-22T09:31:59.693Z,100781.69
2022-08-22T09:34:34.730Z,100783.47
2022-08-22T09:37:16.634Z,100795.69
2022-08-22T09:40:00.947Z,100790.38
2022-08-22T09:42:30.615Z,100778.06
2022-08-22T09:45:34.851Z,100771.53
2022-08-22T09:48:08.394Z,100772.44
2022-08-22T09:51:08.261Z,100771.66
2022-08-22T09:54:23.189Z,100772.44
2022-08-22T09:56:54.546Z,100751.56
2022-08-22T09:59:44.862Z,100742.28
2022-08-22T10:02:37.421Z,100736.13
2022-08-22T10:05:44.184Z,100757.06
2022-08-22T10:08:37.835Z,100755.06
2022-08-22T10:11:28.854Z,100744.88
2022-08-22T10:14:13.805Z,100749.84
2022-08-22T10:16:56.925Z,100746.84
2022-08-22T10:19:35.585Z,100742.88
2022-08-22T10:22:40.197Z,100752.78
2022-08-22T10:25:34.759Z,100748.75
2022-08-22T10:28:32.234Z,100745.69
2022-08-22T10:31:02.147Z,100748.31
2022-08-22T10:33:58.397Z,100746.28
2022-08-22T10:36:46.949Z,100723.00
2022-08-22T10:39:23.801Z,100741.06
2022-08-22T10:42:23.328Z,100736.16
2022-08-22T10:45:12.005Z,100740.69
2022-08-22T10:47:45.917Z,100713.84
2022-08-22T10:50:20.180Z,100711.72
2022-08-22T10:53:17.229Z,100727.50
2022-08-22T10:56:04.481Z,100712.22
2022-08-22T10:58:39.005Z,100727.50
2022-08-22T11:01:37.823Z,100719.38
2022-08-22T11:04:30.646Z,100732.66
2022-08-22T11:07:29.913Z,100733.03
2022-08-22T11:10:05.719Z,100715.31
2022-08-22T11:12:37.385Z,100704.00
2022-08-22T11:15:34.452Z,100709.44
2022-08-22T11:18:04.421Z,100729.53
2022-08-22T11:20:40.260Z,100711.97
2022-08-22T11:23:38.314Z,100738.34
2022-08-22T11:26:33.789Z,100718.75
2022-08-22T11:29:34.094Z,100725.06
2022-08-22T11:32:36.726Z,100707.69
2022-08-22T11:35:12.581Z,100719.72
2022-08-22T11:37:51.336Z,100665.91
2022-08-22T11:40:33.012Z,100714.69
2022-08-22T11:43:39.212Z,100707.91
2022-08-22T11:46:20.293Z,100703.00
2022-08-22T11:49:13.105Z,100709.00
2022-08-22T11:52:03.018Z,100706.72
2022-08-22T11:55:00.936Z,100702.13
2022-08-22T11:57:27.764Z,100706.63
2022-08-22T12:00:01.258Z,100707.28
2022-08-22T12:02:27.908Z,100711.59
2022-08-22T12:05:24.264Z,100699.13
2022-08-22T12:08:06.550Z,100719.81
2022-08-22T12:10:43.259Z,100698.06
2022-08-22T12:13:35.454Z,100696.69
2022-08-22T12:16:37.695Z,100702.00
2022-08-22T12:19:22.919Z,100710.69
2022-08-22T12:22:11.440Z,100703.88
2022-08-22T12:24:53.321Z,100704.25
2022-08-22T12:27:29.660Z,100708.94
2022-08-22T12:30:27.379Z,100709.47
2022-08-22T12:33:10.359Z,100713.09
2022-08-22T12:36:18.434Z,100703.50
2022-08-22T12:39:09.602Z,100702.88
2022-08-22T12:41:46.730Z,100703.25
2022-08-22T12:44:46.426Z,100697.88
2022-08-22T12:47:57.198Z,100697.09
2022-08-22T12:50:47.799Z,100678.06
2022-08-22T12:53:39.293Z,100698.31
2022-08-22T12:56:10.364Z,100697.09
2022-08-22T12:58:54.754Z,100695.78
2022-08-22T13:01:34.045Z,100680.94
2022-08-22T13:04:05.414Z,100682.06
2022-08-22T13:06:38.448Z,100686.56
2022-08-22T13:09:29.040Z,100686.34
2022-08-22T13:12:47.887Z,100624.97
2022-08-22T13:15:18.516Z,100693.41
2022-08-22T13:17:46.826Z,100669.31
2022-08-22T13:20:24.370Z,100674.31
2022-08-22T13:22:54.475Z,100672.34
2022-08-22T13:25:25.852Z,100680.47
2022-08-22T13:27:59.161Z,100666.97
2022-08-22T13:30:37.861Z,100663.81
2022-08-22T13:33:11.940Z,100662.56
2022-08-22T13:35:51.571Z,100658.75
2022-08-22T13:38:33.979Z,100656.47
2022-08-22T13:41:03.458Z,100665.25
2022-08-22T13:43:55.150Z,100666.94
2022-08-22T13:46:28.108Z,100658.16
2022-08-22T13:49:00.760Z,100671.69
2022-08-22T13:51:53.832Z,100662.47
2022-08-22T13:54:49.038Z,100660.41
2022-08-22T13:57:35.048Z,100668.63
2022-08-22T14:00:27.444Z,100628.09
2022-08-22T14:03:05.666Z,100671.31
2022-08-22T14:05:46.589Z,100671.06
2022-08-22T14:08:36.638Z,100673.13
2022-08-22T14:11:12.253Z,100650.72
2022-08-22T14:13:49.878Z,100658.91
2022-08-22T14:16:32.804Z,100666.41
2022-08-22T14:19:06.846Z,100606.63
2022-08-22T14:21:51.165Z,100660.59
2022-08-22T14:24:45.762Z,100652.44
2022-08-22T14:27:27.970Z,100665.47
2022-08-22T14:30:17.127Z,100659.19
2022-08-22T14:32:57.325Z,100656.69
2022-08-22T14:35:37.711Z,100652.50
2022-08-22T14:38:21.495Z,100664.16
2022-08-22T14:41:00.573Z,100662.31
2022-08-22T14:43:30.089Z,100662.25
2022-08-22T14:46:01.967Z,100639.06
2022-08-22T14:48:40.886Z,100652.63
2022-08-22T14:51:22.083Z,100644.41
2022-08-22T14:53:50.181Z,100631.53
2022-08-22T14:56:27.699Z,100653.59
2022-08-22T14:59:00.939Z,100651.34
2022-08-22T15:01:32.768Z,100636.41
2022-08-22T15:04:05.460Z,100656.31
2022-08-22T15:06:32.250Z,100651.88
2022-08-22T15:09:00.529Z,100640.31
2022-08-22T15:11:36.678Z,100635.75
2022-08-22T15:14:52.455Z,100640.16
2022-08-22T15:17:39.085Z,100640.84
2022-08-22T15:20:22.800Z,100626.75
2022-08-22T15:22:59.073Z,100637.59
2022-08-22T15:25:35.508Z,100628.22
2022-08-22T15:28:14.237Z,100635.03
2022-08-22T15:31:03.596Z,100626.44
2022-08-22T15:33:39.694Z,100629.50
2022-08-22T15:36:17.013Z,100603.75
2022-08-22T15:38:53.994Z,100589.22
2022-08-22T15:41:31.422Z,100625.66
2022-08-22T15:44:32.157Z,100626.31
2022-08-22T15:47:00.031Z,100620.41
2022-08-22T15:49:30.978Z,100586.81
2022-08-22T15:52:01.055Z,100623.00
2022-08-22T15:54:37.692Z,100617.75
2022-08-22T15:57:22.592Z,100612.59
2022-08-22T16:00:04.404Z,100614.25
2022-08-22T16:03:03.142Z,100605.97
2022-08-22T16:05:33.062Z,100613.91
2022-08-22T16:08:09.471Z,100605.56
2022-08-22T16:11:10.207Z,100602.41
2022-08-22T16:13:40.222Z,100585.97
2022-08-22T16:16:25.204Z,100591.38
2022-08-22T16:18:51.871Z,100604.34
2022-08-22T16:21:38.948Z,100606.03
2022-08-22T16:24:05.874Z,100603.22
2022-08-22T16:26:41.590Z,100583.03
2022-08-22T16:29:15.040Z,100597.38
2022-08-22T16:31:44.806Z,100599.03
2022-08-22T16:34:17.842Z,100597.72
2022-08-22T16:37:08.344Z,100580.81
2022-08-22T16:40:01.894Z,100592.91
2022-08-22T16:42:28.602Z,100588.59
2022-08-22T16:45:07.067Z,100582.97
2022-08-22T16:47:33.687Z,100583.69
2022-08-22T16:50:15.439Z,100575.63
2022-08-22T16:53:02.909Z,100583.00
2022-08-22T16:55:29.713Z,100583.06
2022-08-22T16:58:49.904Z,100577.63
2022-08-22T17:01:37.602Z,100585.66
2022-08-22T17:04:23.878Z,100582.97
2022-08-22T17:07:02.671Z,100578.94
2022-08-22T17:09:44.447Z,100580.44
2022-08-22T17:12:45.110Z,100580.91
2022-08-22T17:15:26.882Z,100578.81
2022-08-22T17:18:22.753Z,100572.91
2022-08-22T17:21:15.429Z,100570.00
2022-08-22T17:24:32.425Z,100571.78
2022-08-22T17:27:03.822Z,100575.72
2022-08-22T17:29:49.017Z,100562.69
2022-08-22T17:32:21.559Z,100568.16
2022-08-22T17:35:14.159Z,100557.78
2022-08-22T17:38:06.490Z,100561.13
2022-08-22T17:41:05.419Z,100564.91
2022-08-22T17:43:49.840Z,100566.91
2022-08-22T17:46:25.477Z,100556.94
2022-08-22T17:48:59.533Z,100556.63
2022-08-22T17:51:32.798Z,100567.66
2022-08-22T17:54:04.398Z,100567.31
2022-08-22T17:57:00.350Z,100565.41
2022-08-22T17:59:45.693Z,100537.19
2022-08-22T18:02:19.267Z,100522.22
2022-08-22T18:04:58.812Z,100527.88
2022-08-22T18:07:34.636Z,100567.91
2022-08-22T18:10:38.400Z,100549.94
2022-08-22T18:13:26.741Z,100574.78
2022-08-22T18:15:59.739Z,100552.75
2022-08-22T18:18:35.601Z,100561.97
2022-08-22T18:21:25.345Z,100573.47
2022-08-22T18:23:59.505Z,100568.72
2022-08-22T18:26:43.762Z,100573.19
2022-08-22T18:29:18.024Z,100569.34
2022-08-22T18:31:55.045Z,100572.03
2022-08-22T18:34:33.937Z,100576.81
2022-08-22T18:37:23.573Z,100575.84
2022-08-22T18:40:08.595Z,100586.56
2022-08-22T18:42:50.658Z,100574.56
2022-08-22T18:45:19.720Z,100570.69
2022-08-22T18:47:56.478Z,100522.94
2022-08-22T18:50:31.721Z,100560.22
2022-08-22T18:52:59.659Z,100552.41
2022-08-22T18:55:38.734Z,100581.84
2022-08-22T18:58:38.111Z,100560.63
2022-08-22T19:01:35.965Z,100566.56
2022-08-22T19:04:33.164Z,100579.25
2022-08-22T19:07:11.986Z,100575.22
2022-08-22T19:10:02.399Z,100579.91
2022-08-22T19:13:09.538Z,100516.84
2022-08-22T19:15:55.527Z,100574.34
2022-08-22T19:18:38.242Z,100550.72
2022-08-22T19:21:45.857Z,100534.22
2022-08-22T19:24:27.815Z,100576.44
2022-08-22T19:27:19.496Z,100577.22
2022-08-22T19:29:46.461Z,100583.13
2022-08-22T19:32:44.839Z,100578.47
2022-08-22T19:35:20.174Z,100581.75
2022-08-22T19:38:01.850Z,100579.88
2022-08-22T19:40:55.956Z,100576.34
2022-08-22T19:43:32.023Z,100520.19
2022-08-22T19:46:03.791Z,100564.59
2022-08-22T19:48:44.634Z,100567.31
2022-08-22T19:51:19.395Z,100539.13
2022-08-22T19:53:57.371Z,100561.06
2022-08-22T19:56:56.572Z,100562.16
2022-08-22T19:59:29.294Z,100566.91
2022-08-22T20:02:55.487Z,100547.22
2022-08-22T20:05:25.427Z,100543.72
2022-08-22T20:08:10.384Z,100492.78
2022-08-22T20:11:07.854Z,100542.88
2022-08-22T20:13:36.613Z,100536.25
2022-08-22T20:16:03.345Z,100546.16
2022-08-22T20:19:04.908Z,100555.47
2022-08-22T20:22:00.800Z,100530.81
2022-08-22T20:24:41.469Z,100513.31
2022-08-22T20:27:29.724Z,100549.44
2022-08-22T20:30:08.194Z,100534.97
2022-08-22T20:32:48.846Z,100539.44
2022-08-22T20:35:19.411Z,100530.78
2022-08-22T20:38:09.165Z,100542.69
2022-08-22T20:40:57.115Z,100540.78
2022-08-22T20:43:39.661Z,100501.19
2022-08-22T20:46:16.269Z,100540.78
2022-08-22T20:48:46.018Z,100530.44
2022-08-22T20:51:25.158Z,100526.50
2022-08-22T20:53:58.182Z,100526.41
2022-08-22T20:56:53.057Z,100512.00
2022-08-22T20:59:27.337Z,100528.31
2022-08-22T21:02:15.320Z,100526.84
2022-08-22T21:04:48.893Z,100503.53
2022-08-22T21:07:26.159Z,100504.38
2022-08-22T21:10:22.958Z,100528.41
2022-08-22T21:13:07.437Z,100529.16
2022-08-22T21:15:40.431Z,100519.09
2022-08-22T21:18:08.557Z,100513.81
2022-08-22T21:20:37.371Z,100527.56
2022-08-22T21:23:09.048Z,100520.38
2022-08-22T21:25:58.029Z,100489.69
2022-08-22T21:28:31.705Z,100511.50
2022-08-22T21:30:59.437Z,100523.66
2022-08-22T21:33:26.430Z,100510.63
2022-08-22T21:35:59.426Z,100510.53
2022-08-22T21:38:27.710Z,100520.47
2022-08-22T21:41:01.435Z,100511.59
2022-08-22T21:43:34.599Z,100519.22
2022-08-22T21:46:01.280Z,100514.53
2022-08-22T21:48:58.899Z,100490.94
2022-08-22T21:51:42.046Z,100488.84
2022-08-22T21:54:30.002Z,100505.97
2022-08-22T21:57:08.800Z,100508.81
2022-08-22T21:59:52.253Z,100503.97
2022-08-22T22:02:34.121Z,100483.22
2022-08-22T22:05:04.731Z,100501.84
2022-08-22T22:07:36.754Z,100514.34
2022-08-22T22:10:04.737Z,100507.25
2022-08-22T22:12:31.590Z,100503.34
2022-08-22T22:14:58.320Z,100495.09
2022-08-22T22:17:24.987Z,100494.34
2022-08-22T22:19:51.740Z,100493.91
2022-08-22T22:22:18.530Z,100494.75
2022-08-22T22:24:45.458Z,100499.00
2022-08-22T22:27:16.762Z,100496.47
2022-08-22T22:29:43.843Z,100499.66
2022-08-22T22:32:10.552Z,100503.34
2022-08-22T22:34:39.173Z,100504.28
2022-08-22T22:37:08.415Z,100469.78
2022-08-22T22:39:36.865Z,100482.38
2022-08-22T22:42:04.281Z,100504.47
2022-08-22T22:44:31.381Z,100490.63
2022-08-22T22:47:00.890Z,100478.97
2022-08-22T22:49:27.657Z,100497.16
2022-08-22T22:51:54.318Z,100469.28
2022-08-22T22:54:21.233Z,100493.06
2022-08-22T22:56:54.145Z,100498.16
2022-08-22T22:59:24.752Z,100483.66
2022-08-22T23:02:03.702Z,100504.09
2022-08-22T23:04:36.102Z,100507.88
2022-08-22T23:07:04.045Z,100489.16
2022-08-22T23:09:38.628Z,100495.28
2022-08-22T23:12:13.739Z,100499.00
2022-08-22T23:14:41.094Z,100510.31
2022-08-22T23:17:07.962Z,100504.47
2022-08-22T23:19:35.017Z,100494.34
2022-08-22T23:22:02.018Z,100492.63
2022-08-22T23:24:31.324Z,100487.78
2022-08-22T23:26:58.112Z,100490.31
2022-08-22T23:29:26.216Z,100481.19
2022-08-22T23:31:59.545Z,100480.88
2022-08-22T23:34:32.079Z,100487.00
2022-08-22T23:37:01.691Z,100482.91
2022-08-22T23:39:30.532Z,100474.44
2022-08-22T23:41:58.335Z,100486.81
2022-08-22T23:44:28.387Z,100485.03
2022-08-22T23:46:55.468Z,100474.13
2022-08-22T23:49:22.626Z,100469.47
2022-08-22T23:51:50.360Z,100473.06
2022-08-22T23:54:18.592Z,100463.03
2022-08-22T23:56:52.208Z,100460.47
2022-08-22T23:59:22.530Z,100468.72
